Time;durP1;ratioP1;P1;durP2;ratioP2;P2;SDS_P1;SDS_P2;PMS_P1;PMS_P2;Temp;Humidity;BMP_temperature;BMP_pressure;BME280_temperature;BME280_humidity;BME280_pressure;Samples;Min_cycle;Max_cycle;Signal;HPM_P1;HPM_P2
2022/08/29 00:00:58;;;;;;;9.85;3.60;;;18.30;93.50;;;;;;5029173;28;20080;-70
2022/08/29 00:03:24;;;;;;;9.60;3.95;;;18.20;93.60;;;;;;5031396;28;20075;-70
2022/08/29 00:05:50;;;;;;;8.13;3.58;;;18.20;93.60;;;;;;5036339;28;20029;-70
2022/08/29 00:08:16;;;;;;;6.25;3.15;;;18.20;93.70;;;;;;5036664;28;20037;-70
2022/08/29 00:10:42;;;;;;;7.65;3.88;;;18.20;93.70;;;;;;5029339;28;20476;-70
2022/08/29 00:13:10;;;;;;;8.40;3.85;;;18.20;93.90;;;;;;5030088;28;20042;-70
2022/08/29 00:15:36;;;;;;;6.47;3.13;;;18.20;93.90;;;;;;5031495;28;20097;-69
2022/08/29 00:18:02;;;;;;;8.45;3.85;;;18.20;93.90;;;;;;5028420;28;20784;-69
2022/08/29 00:20:30;;;;;;;6.78;3.60;;;18.20;93.90;;;;;;5030012;28;20034;-70
2022/08/29 00:22:57;;;;;;;6.85;3.53;;;18.20;93.90;;;;;;5030445;28;20471;-69
2022/08/29 00:25:23;;;;;;;6.32;4.03;;;18.20;94.00;;;;;;5029659;28;20029;-70
2022/08/29 00:27:49;;;;;;;8.52;3.15;;;18.10;94.00;;;;;;5030332;28;20442;-69
2022/08/29 00:30:16;;;;;;;6.95;3.40;;;18.10;94.10;;;;;;5041123;28;20084;-69
2022/08/29 00:32:42;;;;;;;6.57;3.28;;;18.10;94.20;;;;;;5031481;28;20065;-69
2022/08/29 00:35:15;;;;;;;7.35;3.70;;;18.10;94.30;;;;;;5040898;28;20025;-69
2022/08/29 00:37:41;;;;;;;7.65;3.53;;;18.00;94.30;;;;;;5040586;28;20112;-70
2022/08/29 00:40:11;;;;;;;8.20;3.47;;;18.10;94.50;;;;;;5035530;28;20073;-69
2022/08/29 00:42:37;;;;;;;9.10;3.63;;;18.10;94.50;;;;;;5026226;28;20033;-69
2022/08/29 00:45:05;;;;;;;6.38;3.33;;;18.10;94.50;;;;;;5031895;28;20029;-69
2022/08/29 00:47:35;;;;;;;8.35;3.60;;;18.10;94.60;;;;;;5032400;28;20030;-69
2022/08/29 00:50:03;;;;;;;7.95;3.67;;;18.00;94.60;;;;;;5042233;28;20029;-69
2022/08/29 00:52:39;;;;;;;8.98;3.85;;;18.00;94.70;;;;;;5034347;28;20121;-69
2022/08/29 00:55:12;;;;;;;8.68;3.70;;;18.00;94.70;;;;;;5049351;28;20376;-68
2022/08/29 00:57:43;;;;;;;7.60;3.47;;;18.00;94.80;;;;;;5027595;28;20147;-69
2022/08/29 01:00:10;;;;;;;6.88;3.35;;;18.00;94.70;;;;;;5036235;28;20413;-69
2022/08/29 01:02:38;;;;;;;8.18;3.55;;;18.00;94.90;;;;;;5039662;28;20491;-69
2022/08/29 01:05:06;;;;;;;9.68;3.50;;;17.90;95.00;;;;;;5032637;28;20075;-70
2022/08/29 01:07:32;;;;;;;10.00;4.00;;;17.90;95.00;;;;;;5034337;28;20057;-71
2022/08/29 01:09:58;;;;;;;9.63;3.45;;;17.90;95.10;;;;;;5033489;28;20029;-70
2022/08/29 01:12:25;;;;;;;7.68;3.35;;;17.90;95.10;;;;;;5034248;28;20415;-70
2022/08/29 01:15:07;;;;;;;7.13;3.72;;;17.90;95.20;;;;;;5033236;28;20029;-70
2022/08/29 01:17:41;;;;;;;6.93;4.10;;;17.90;95.20;;;;;;5034124;28;20029;-70
2022/08/29 01:20:43;;;;;;;8.43;3.65;;;17.90;95.20;;;;;;5020221;28;20087;-70
2022/08/29 01:23:19;;;;;;;8.15;3.50;;;17.90;95.20;;;;;;5027347;28;20116;-70
2022/08/29 01:25:49;;;;;;;9.98;4.15;;;17.90;95.30;;;;;;5048940;28;20086;-70
2022/08/29 01:28:22;;;;;;;6.93;3.20;;;17.80;95.30;;;;;;5035929;28;20046;-70
2022/08/29 01:31:05;;;;;;;7.43;3.60;;;17.80;95.40;;;;;;5034927;28;20037;-70
2022/08/29 01:34:01;;;;;;;11.02;4.05;;;17.80;95.40;;;;;;5033081;28;20045;-70
2022/08/29 01:36:49;;;;;;;5.85;3.40;;;17.80;95.50;;;;;;5013947;28;20095;-69
2022/08/29 01:39:17;;;;;;;8.57;3.58;;;17.80;95.50;;;;;;5029875;28;20064;-70
2022/08/29 01:41:42;;;;;;;8.45;3.33;;;17.80;95.60;;;;;;5051139;28;20075;-69
2022/08/29 01:44:17;;;;;;;12.07;3.83;;;17.80;95.60;;;;;;5032036;28;20057;-69
2022/08/29 01:46:44;;;;;;;8.25;4.50;;;17.80;95.60;;;;;;5029822;28;20399;-68
2022/08/29 01:49:12;;;;;;;7.95;3.90;;;17.70;95.60;;;;;;5012981;28;20037;-69
2022/08/29 01:51:39;;;;;;;9.00;3.75;;;17.80;95.90;;;;;;5033126;28;20033;-69
2022/08/29 01:54:06;;;;;;;6.70;3.17;;;17.70;95.70;;;;;;5020824;28;20030;-69
2022/08/29 01:56:35;;;;;;;7.55;3.50;;;17.70;95.80;;;;;;5013345;28;20037;-70
2022/08/29 01:59:02;;;;;;;8.38;3.35;;;17.70;95.80;;;;;;5010051;28;20059;-70
2022/08/29 02:01:37;;;;;;;9.98;3.35;;;17.80;95.80;;;;;;5013985;28;20033;-69
2022/08/29 02:04:06;;;;;;;7.57;3.08;;;17.70;95.70;;;;;;5032866;28;20033;-70
2022/08/29 02:06:32;;;;;;;7.13;3.88;;;17.70;95.80;;;;;;5028758;28;20029;-69
2022/08/29 02:08:59;;;;;;;6.90;3.50;;;17.70;95.70;;;;;;5022937;28;20026;-69
2022/08/29 02:11:26;;;;;;;8.50;4.10;;;17.70;95.80;;;;;;5021381;28;20040;-69
2022/08/29 02:13:54;;;;;;;7.65;3.97;;;17.70;95.80;;;;;;5009472;28;20045;-70
2022/08/29 02:16:22;;;;;;;10.02;4.22;;;17.60;95.80;;;;;;5033030;28;20018;-70
2022/08/29 02:18:48;;;;;;;7.22;3.75;;;17.60;95.90;;;;;;5020014;28;20167;-71
2022/08/29 02:21:17;;;;;;;5.82;3.63;;;17.60;95.90;;;;;;5032370;28;20437;-71
2022/08/29 02:23:45;;;;;;;9.05;4.35;;;17.60;95.90;;;;;;5031271;28;20047;-70
2022/08/29 02:26:12;;;;;;;8.68;3.97;;;17.60;95.90;;;;;;5032669;28;20483;-70
2022/08/29 02:28:38;;;;;;;6.45;3.38;;;17.50;95.90;;;;;;5031982;28;20029;-70
2022/08/29 02:31:05;;;;;;;9.25;4.00;;;17.50;95.90;;;;;;5032146;28;20048;-70
2022/08/29 02:33:31;;;;;;;8.80;4.05;;;17.50;95.90;;;;;;5035201;28;20033;-70
2022/08/29 02:35:57;;;;;;;6.65;4.00;;;17.50;96.00;;;;;;5024280;28;20025;-70
2022/08/29 02:38:23;;;;;;;6.82;3.90;;;17.40;96.00;;;;;;5037728;28;20026;-70
2022/08/29 02:40:50;;;;;;;8.68;4.10;;;17.40;96.00;;;;;;5019134;28;20436;-71
2022/08/29 02:43:18;;;;;;;7.47;4.10;;;17.50;96.00;;;;;;5016465;28;20021;-71
2022/08/29 02:45:44;;;;;;;6.53;3.75;;;17.40;96.00;;;;;;5032279;28;20025;-71
2022/08/29 02:48:11;;;;;;;6.68;3.95;;;17.40;96.00;;;;;;5031673;28;20099;-71
2022/08/29 02:50:45;;;;;;;7.35;4.00;;;17.40;96.00;;;;;;5031897;28;20026;-71
2022/08/29 02:53:13;;;;;;;7.38;4.15;;;17.40;96.20;;;;;;5035125;28;20106;-71
2022/08/29 02:55:40;;;;;;;9.63;4.47;;;17.40;96.10;;;;;;5047031;28;20431;-70
2022/08/29 02:58:06;;;;;;;9.25;4.28;;;17.30;96.20;;;;;;5028832;28;20025;-70
2022/08/29 03:00:33;;;;;;;8.48;4.20;;;17.30;96.20;;;;;;5015001;28;20037;-71
2022/08/29 03:03:00;;;;;;;6.57;3.58;;;17.30;96.30;;;;;;5028415;28;20153;-71
2022/08/29 03:05:29;;;;;;;6.13;3.45;;;17.30;96.30;;;;;;5031353;28;20048;-71
2022/08/29 03:07:56;;;;;;;8.68;3.88;;;17.30;96.30;;;;;;5029615;28;20025;-70
2022/08/29 03:10:22;;;;;;;7.70;4.32;;;17.30;96.20;;;;;;5032286;28;20109;-70
2022/08/29 03:12:49;;;;;;;9.20;4.13;;;17.20;96.20;;;;;;5039644;28;20128;-69
2022/08/29 03:15:15;;;;;;;6.40;3.88;;;17.20;96.30;;;;;;5032513;28;20025;-69
2022/08/29 03:17:41;;;;;;;7.88;3.90;;;17.20;96.30;;;;;;5032024;28;20500;-68
2022/08/29 03:20:08;;;;;;;8.60;4.25;;;17.20;96.30;;;;;;5017965;28;20053;-69
2022/08/29 03:22:35;;;;;;;12.55;4.40;;;17.20;96.40;;;;;;5038004;28;20467;-70
2022/08/29 03:25:02;;;;;;;13.27;4.72;;;17.10;96.40;;;;;;5031005;28;20056;-70
2022/08/29 03:27:29;;;;;;;9.95;4.18;;;17.10;96.50;;;;;;5031121;28;20021;-70
2022/08/29 03:29:56;;;;;;;8.57;3.45;;;17.10;96.50;;;;;;5030600;28;20049;-70
2022/08/29 03:32:22;;;;;;;12.43;4.38;;;17.10;96.40;;;;;;5030285;28;20048;-69
2022/08/29 03:34:49;;;;;;;7.03;4.25;;;17.10;96.50;;;;;;5019877;28;20473;-70
2022/08/29 03:37:14;;;;;;;9.15;3.97;;;17.10;96.50;;;;;;5029204;28;20033;-70
2022/08/29 03:39:42;;;;;;;8.27;3.97;;;17.10;96.50;;;;;;5029738;28;20029;-70
2022/08/29 03:42:07;;;;;;;6.05;3.90;;;17.10;96.50;;;;;;5030014;28;20057;-70
2022/08/29 03:44:38;;;;;;;8.32;4.10;;;17.10;96.50;;;;;;5028514;28;20099;-70
2022/08/29 03:47:05;;;;;;;8.48;3.72;;;17.00;96.50;;;;;;5022944;28;20527;-70
2022/08/29 03:49:32;;;;;;;7.63;3.53;;;17.00;96.50;;;;;;5026050;28;20119;-70
2022/08/29 03:51:58;;;;;;;6.93;3.50;;;17.00;96.50;;;;;;5030193;28;20579;-70
2022/08/29 03:54:23;;;;;;;6.68;3.90;;;17.00;96.50;;;;;;5030755;28;20167;-70
2022/08/29 03:56:49;;;;;;;7.45;3.53;;;16.90;96.50;;;;;;5039172;28;20087;-70
2022/08/29 03:59:17;;;;;;;8.40;4.68;;;16.90;96.50;;;;;;5036354;28;20030;-70
2022/08/29 04:01:45;;;;;;;11.77;4.07;;;16.90;96.60;;;;;;5030884;28;20111;-70
2022/08/29 04:05:05;;;;;;;8.82;4.20;;;16.90;96.60;;;;;;5030564;28;20075;-70
2022/08/29 04:06:58;;;;;;;15.90;5.07;;;16.90;96.60;;;;;;5029724;28;20542;-71
2022/08/29 04:09:24;;;;;;;7.07;3.95;;;16.90;96.60;;;;;;5030580;28;20514;-70
2022/08/29 04:11:50;;;;;;;11.07;4.03;;;16.90;96.70;;;;;;5032343;28;20018;-70
2022/08/29 04:14:15;;;;;;;9.10;4.50;;;16.90;96.70;;;;;;5034262;28;20087;-69
2022/08/29 04:16:41;;;;;;;7.65;4.35;;;16.90;96.90;;;;;;5034083;28;20121;-69
2022/08/29 04:19:07;;;;;;;7.28;4.47;;;16.80;96.70;;;;;;5034442;28;20057;-69
2022/08/29 04:21:33;;;;;;;10.55;4.18;;;16.80;96.70;;;;;;5033092;28;20060;-69
2022/08/29 04:23:59;;;;;;;10.25;4.43;;;16.80;96.70;;;;;;5035003;28;20036;-69
2022/08/29 04:26:25;;;;;;;9.63;4.13;;;16.80;96.80;;;;;;5033454;28;20022;-69
2022/08/29 04:28:51;;;;;;;13.02;4.43;;;16.80;96.90;;;;;;5034785;28;20045;-69
2022/08/29 04:31:18;;;;;;;8.98;3.97;;;16.80;96.90;;;;;;5025177;28;20033;-69
2022/08/29 04:33:45;;;;;;;8.75;4.03;;;16.80;97.00;;;;;;5034197;28;20099;-69
2022/08/29 04:36:13;;;;;;;6.40;4.20;;;16.80;97.20;;;;;;5034259;28;20033;-70
2022/08/29 04:38:39;;;;;;;7.90;4.22;;;16.80;97.10;;;;;;5033969;28;20029;-69
2022/08/29 04:41:06;;;;;;;11.57;4.63;;;16.80;97.20;;;;;;5033066;28;20045;-69
2022/08/29 04:43:33;;;;;;;10.18;4.53;;;16.80;97.20;;;;;;5034607;28;20033;-69
2022/08/29 04:45:59;;;;;;;14.82;4.68;;;16.80;97.20;;;;;;5029425;28;20506;-69
2022/08/29 04:48:25;;;;;;;15.05;4.18;;;16.80;97.20;;;;;;5039996;28;20411;-69
2022/08/29 04:50:58;;;;;;;7.70;4.10;;;16.90;97.30;;;;;;5049201;28;20025;-69
2022/08/29 04:53:25;;;;;;;8.25;4.32;;;16.90;97.30;;;;;;5019758;28;20083;-69
2022/08/29 04:55:59;;;;;;;10.23;4.45;;;17.00;97.40;;;;;;5015840;28;20026;-69
2022/08/29 04:58:24;;;;;;;10.02;3.83;;;17.00;97.50;;;;;;5031297;28;20029;-69
2022/08/29 05:00:51;;;;;;;8.90;4.35;;;17.10;97.40;;;;;;5040347;28;20025;-70
2022/08/29 05:03:19;;;;;;;9.90;4.50;;;17.20;97.40;;;;;;5031319;28;20028;-70
2022/08/29 05:05:45;;;;;;;8.88;4.50;;;17.20;97.30;;;;;;5021947;28;20034;-72
2022/08/29 05:08:11;;;;;;;11.48;4.13;;;17.30;97.50;;;;;;5034207;28;20399;-73
2022/08/29 05:10:36;;;;;;;11.20;4.63;;;17.30;97.60;;;;;;5037861;28;20021;-72
2022/08/29 05:13:02;;;;;;;9.52;4.70;;;17.30;97.40;;;;;;5032396;28;20045;-74
2022/08/29 05:15:28;;;;;;;10.60;4.80;;;17.30;97.50;;;;;;5039142;28;20100;-74
2022/08/29 05:17:54;;;;;;;12.00;4.50;;;17.30;97.50;;;;;;5024418;28;20518;-77
2022/08/29 05:20:20;;;;;;;9.05;4.70;;;17.30;97.40;;;;;;5034107;28;20033;-77
2022/08/29 05:22:46;;;;;;;8.93;4.13;;;17.40;97.40;;;;;;5025049;28;20049;-76
2022/08/29 05:25:13;;;;;;;9.43;4.70;;;17.40;97.50;;;;;;5023551;28;20075;-76
2022/08/29 05:27:40;;;;;;;8.35;5.80;;;17.40;97.50;;;;;;5030194;28;20530;-76
2022/08/29 05:30:06;;;;;;;10.98;5.45;;;17.50;97.50;;;;;;5032119;28;20039;-76
2022/08/29 05:32:32;;;;;;;9.88;5.50;;;17.50;97.60;;;;;;5035376;28;20085;-75
2022/08/29 05:34:58;;;;;;;6.78;4.63;;;17.50;97.90;;;;;;5015476;28;20028;-75
2022/08/29 05:37:25;;;;;;;10.73;5.55;;;17.60;97.80;;;;;;5035280;28;20045;-75
2022/08/29 05:39:51;;;;;;;9.68;5.10;;;17.60;97.80;;;;;;5038329;28;20407;-75
2022/08/29 05:42:20;;;;;;;10.68;5.65;;;17.60;98.00;;;;;;5053408;28;20021;-75
2022/08/29 05:44:46;;;;;;;11.73;5.35;;;17.60;98.10;;;;;;5038336;28;20029;-75
2022/08/29 05:47:14;;;;;;;9.18;5.80;;;17.60;98.10;;;;;;5023037;28;20548;-76
2022/08/29 05:49:43;;;;;;;12.00;5.82;;;17.70;98.20;;;;;;5032418;28;20034;-75
2022/08/29 05:52:09;;;;;;;13.45;6.40;;;17.70;98.30;;;;;;5032602;28;20033;-76
2022/08/29 05:54:38;;;;;;;10.48;6.10;;;17.70;98.30;;;;;;5031508;28;20022;-74
2022/08/29 05:57:05;;;;;;;14.27;6.57;;;17.80;98.30;;;;;;5032598;28;20065;-74
2022/08/29 05:59:31;;;;;;;8.52;5.53;;;17.90;98.20;;;;;;5031437;28;20029;-75
2022/08/29 06:01:56;;;;;;;12.20;5.70;;;18.00;98.30;;;;;;5022875;28;20031;-75
2022/08/29 06:04:22;;;;;;;15.57;6.25;;;18.00;98.40;;;;;;5019939;28;20464;-75
2022/08/29 06:06:49;;;;;;;9.10;5.50;;;18.10;98.30;;;;;;5007320;28;20029;-75
2022/08/29 06:09:15;;;;;;;13.43;5.13;;;18.20;98.30;;;;;;5032273;28;20029;-75
2022/08/29 06:11:46;;;;;;;11.52;4.55;;;18.30;98.30;;;;;;5031588;28;20526;-76
2022/08/29 06:14:13;;;;;;;15.60;6.15;;;18.40;98.20;;;;;;5022134;28;20095;-75
2022/08/29 06:16:39;;;;;;;10.25;5.25;;;18.40;98.10;;;;;;5029696;28;20021;-76
2022/08/29 06:19:05;;;;;;;10.32;5.45;;;18.50;98.00;;;;;;5020439;28;20588;-75
2022/08/29 06:21:30;;;;;;;11.45;5.78;;;18.60;98.00;;;;;;5019540;28;20057;-74
2022/08/29 06:23:56;;;;;;;11.63;5.22;;;18.60;97.90;;;;;;5030264;28;20029;-75
2022/08/29 06:26:22;;;;;;;10.52;5.00;;;18.60;97.90;;;;;;5026891;28;20534;-74
2022/08/29 06:28:48;;;;;;;13.75;5.05;;;18.70;98.10;;;;;;5029570;28;20103;-75
2022/08/29 06:31:20;;;;;;;14.13;5.75;;;18.80;97.90;;;;;;5022886;28;20080;-74
2022/08/29 06:33:46;;;;;;;12.15;5.38;;;18.80;97.80;;;;;;5029085;28;20061;-75
2022/08/29 06:36:12;;;;;;;13.35;5.35;;;18.90;97.80;;;;;;5030712;28;20044;-75
2022/08/29 06:38:38;;;;;;;9.95;5.15;;;19.00;97.70;;;;;;5018142;28;20031;-75
2022/08/29 06:41:10;;;;;;;11.32;5.30;;;19.00;97.60;;;;;;5013015;28;20026;-76
2022/08/29 06:43:36;;;;;;;14.50;5.60;;;19.10;97.60;;;;;;5018665;28;20034;-74
2022/08/29 06:46:02;;;;;;;9.27;5.32;;;19.00;97.60;;;;;;5026093;28;20033;-75
2022/08/29 06:48:28;;;;;;;11.43;5.20;;;19.10;97.60;;;;;;5017970;28;20079;-75
2022/08/29 06:50:54;;;;;;;9.57;5.10;;;19.10;97.60;;;;;;5016435;28;20026;-75
2022/08/29 06:53:20;;;;;;;8.90;5.22;;;19.10;97.60;;;;;;5018245;28;20037;-71
2022/08/29 06:55:47;;;;;;;10.30;5.40;;;19.20;97.60;;;;;;5028071;28;20056;-73
2022/08/29 06:58:13;;;;;;;17.48;6.55;;;19.20;97.60;;;;;;5020841;28;20026;-73
2022/08/29 07:00:44;;;;;;;12.05;5.50;;;19.20;97.60;;;;;;5014650;28;20183;-73
2022/08/29 07:03:10;;;;;;;11.25;5.10;;;19.20;97.60;;;;;;5029740;28;20030;-76
2022/08/29 07:05:36;;;;;;;11.73;5.05;;;19.30;97.70;;;;;;5030794;28;20030;-75
2022/08/29 07:08:01;;;;;;;11.80;5.72;;;19.30;97.60;;;;;;5024092;28;20515;-75
2022/08/29 07:10:27;;;;;;;10.02;4.97;;;19.40;97.60;;;;;;5029410;28;20021;-76
2022/08/29 07:12:53;;;;;;;12.90;5.28;;;19.40;97.60;;;;;;5014096;28;20131;-75
2022/08/29 07:15:21;;;;;;;7.90;5.30;;;19.50;97.60;;;;;;5001789;28;20072;-74
2022/08/29 07:17:47;;;;;;;13.80;5.25;;;19.50;97.60;;;;;;5016942;28;20115;-75
2022/08/29 07:20:13;;;;;;;12.35;4.88;;;19.60;97.60;;;;;;5014572;28;20029;-75
2022/08/29 07:22:39;;;;;;;8.93;5.05;;;19.60;97.50;;;;;;5016500;28;20041;-75
2022/08/29 07:25:06;;;;;;;10.02;5.65;;;19.70;97.50;;;;;;5039846;28;20025;-76
2022/08/29 07:27:31;;;;;;;14.02;5.85;;;19.70;97.30;;;;;;5030514;28;20500;-74
2022/08/29 07:30:01;;;;;;;12.68;6.00;;;19.70;97.30;;;;;;5028145;28;20092;-74
2022/08/29 07:32:27;;;;;;;9.82;5.00;;;19.70;97.30;;;;;;5025540;28;20129;-74
2022/08/29 07:34:53;;;;;;;12.35;4.95;;;19.80;97.30;;;;;;5030970;28;20029;-75
2022/08/29 07:37:19;;;;;;;9.85;5.25;;;19.80;97.20;;;;;;5031552;28;20490;-75
2022/08/29 07:39:45;;;;;;;7.85;4.95;;;19.80;97.10;;;;;;5022257;28;20030;-74
2022/08/29 07:42:10;;;;;;;11.35;5.63;;;19.90;97.10;;;;;;5025917;28;20025;-72
2022/08/29 07:44:36;;;;;;;13.25;5.97;;;19.90;97.20;;;;;;5030773;28;20379;-75
2022/08/29 07:47:02;;;;;;;9.57;5.15;;;19.90;97.10;;;;;;5030019;28;20112;-77
2022/08/29 07:49:30;;;;;;;9.65;5.43;;;19.90;97.00;;;;;;5032980;28;20048;-75
2022/08/29 07:51:57;;;;;;;7.47;5.20;;;20.00;97.10;;;;;;5030850;28;20391;-75
2022/08/29 07:54:23;;;;;;;9.55;4.70;;;20.00;97.10;;;;;;5038117;28;20112;-75
2022/08/29 07:56:51;;;;;;;10.30;4.97;;;20.00;97.00;;;;;;5031617;28;20061;-74
2022/08/29 07:59:18;;;;;;;9.60;4.45;;;20.00;96.90;;;;;;5032409;28;20471;-75
2022/08/29 08:01:44;;;;;;;8.80;4.63;;;20.00;96.90;;;;;;5026266;28;20048;-74
2022/08/29 08:04:10;;;;;;;12.60;5.28;;;20.10;96.90;;;;;;5056529;28;20022;-74
2022/08/29 08:06:39;;;;;;;8.32;5.20;;;20.10;96.90;;;;;;5067349;28;20117;-76
2022/08/29 08:09:06;;;;;;;12.63;5.80;;;20.10;96.90;;;;;;5036395;28;20029;-75
2022/08/29 08:11:31;;;;;;;12.02;4.63;;;20.20;96.90;;;;;;5040213;28;20029;-72
2022/08/29 08:13:57;;;;;;;10.52;5.30;;;20.30;96.90;;;;;;5020795;28;20025;-75
2022/08/29 08:16:25;;;;;;;9.18;5.18;;;20.30;96.80;;;;;;5038509;28;20048;-74
2022/08/29 08:18:51;;;;;;;9.80;4.55;;;20.30;96.70;;;;;;5044872;28;20045;-74
2022/08/29 08:21:19;;;;;;;11.50;5.45;;;20.40;96.60;;;;;;5017234;28;20044;-73
2022/08/29 08:23:45;;;;;;;11.18;5.35;;;20.40;96.70;;;;;;5036947;28;20080;-73
2022/08/29 08:26:12;;;;;;;8.77;6.07;;;20.50;96.60;;;;;;5026270;28;20025;-73
2022/08/29 08:28:41;;;;;;;9.48;4.97;;;20.60;96.50;;;;;;5029123;28;20118;-72
2022/08/29 08:31:10;;;;;;;9.30;4.78;;;20.70;96.50;;;;;;5028784;28;20022;-72
2022/08/29 08:33:39;;;;;;;9.85;4.85;;;20.70;96.40;;;;;;5019282;28;20049;-72
2022/08/29 08:36:16;;;;;;;6.53;4.25;;;20.80;96.40;;;;;;5018209;28;20103;-72
2022/08/29 08:38:42;;;;;;;11.50;5.40;;;20.80;96.40;;;;;;5025456;28;20029;-71
2022/08/29 08:41:25;;;;;;;11.27;4.45;;;20.80;96.40;;;;;;5026421;28;20029;-71
2022/08/29 08:43:55;;;;;;;9.23;4.97;;;20.80;96.30;;;;;;5026655;28;20141;-72
2022/08/29 08:46:46;;;;;;;8.88;5.63;;;20.80;96.30;;;;;;5027768;28;20029;-71
2022/08/29 08:49:21;;;;;;;8.90;4.53;;;20.80;96.30;;;;;;5025236;28;20029;-72
2022/08/29 08:51:53;;;;;;;8.38;5.15;;;20.80;96.30;;;;;;5027932;28;20045;-72
2022/08/29 08:54:29;;;;;;;9.95;5.10;;;20.90;96.20;;;;;;5033146;28;20064;-71
2022/08/29 08:57:03;;;;;;;7.45;4.88;;;20.90;96.20;;;;;;5029320;28;20032;-72
2022/08/29 08:59:42;;;;;;;7.78;4.90;;;21.00;96.30;;;;;;5025529;28;20057;-71
2022/08/29 09:02:44;;;;;;;7.47;4.65;;;21.00;96.20;;;;;;5026069;28;20053;-72
2022/08/29 09:05:21;;;;;;;8.98;4.60;;;21.10;96.30;;;;;;5031312;28;20025;-72
2022/08/29 09:07:58;;;;;;;10.93;5.57;;;21.10;96.20;;;;;;5023797;28;20554;-72
2022/08/29 09:10:48;;;;;;;9.95;5.07;;;21.20;96.10;;;;;;5044656;28;20428;-67
2022/08/29 09:13:35;;;;;;;8.73;4.57;;;21.20;96.10;;;;;;5046143;28;20382;-67
2022/08/29 09:16:07;;;;;;;9.95;4.82;;;21.30;96.10;;;;;;5022934;28;20381;-67
2022/08/29 09:18:36;;;;;;;8.63;4.80;;;21.30;96.00;;;;;;5030673;28;20033;-68
2022/08/29 09:21:09;;;;;;;8.82;4.70;;;21.40;96.10;;;;;;5023373;28;20362;-67
2022/08/29 09:23:45;;;;;;;8.75;4.90;;;21.40;96.10;;;;;;5028034;28;20412;-66
2022/08/29 09:26:14;;;;;;;7.82;4.63;;;21.60;96.20;;;;;;5024426;28;20474;-67
2022/08/29 09:28:39;;;;;;;6.55;4.00;;;21.70;96.10;;;;;;5030429;28;20101;-67
2022/08/29 09:31:17;;;;;;;7.85;5.15;;;21.80;95.90;;;;;;5032490;28;20045;-67
2022/08/29 09:33:54;;;;;;;7.90;4.65;;;21.90;95.90;;;;;;5035440;28;20036;-68
2022/08/29 09:36:52;;;;;;;7.13;4.45;;;22.00;95.80;;;;;;5033570;28;20492;-66
2022/08/29 09:39:22;;;;;;;6.22;3.97;;;22.20;95.70;;;;;;5000740;28;20040;-68
2022/08/29 09:41:53;;;;;;;7.80;4.75;;;22.30;95.40;;;;;;5025003;28;20538;-68
2022/08/29 09:44:25;;;;;;;9.50;4.63;;;22.30;95.40;;;;;;5030121;28;20030;-68
2022/08/29 09:47:11;;;;;;;7.57;4.15;;;22.40;95.40;;;;;;5017173;28;20507;-68
2022/08/29 09:49:38;;;;;;;8.48;5.15;;;22.50;95.40;;;;;;5028607;28;20033;-67
2022/08/29 09:52:22;;;;;;;7.88;4.50;;;22.50;95.20;;;;;;5049065;28;20502;-68
2022/08/29 09:54:48;;;;;;;7.45;4.22;;;22.60;95.20;;;;;;5031593;28;20033;-68
2022/08/29 09:57:17;;;;;;;6.45;4.38;;;22.70;94.90;;;;;;5031610;28;20464;-67
2022/08/29 09:59:45;;;;;;;10.35;5.07;;;22.70;94.70;;;;;;5027816;28;20033;-68
2022/08/29 10:02:18;;;;;;;7.50;4.47;;;22.70;94.50;;;;;;5031863;28;20038;-66
2022/08/29 10:04:48;;;;;;;6.35;4.30;;;22.70;94.50;;;;;;5036880;28;20509;-67
2022/08/29 10:07:25;;;;;;;7.03;4.05;;;22.70;94.50;;;;;;5032234;28;20057;-67
2022/08/29 10:09:59;;;;;;;6.53;3.90;;;22.70;94.60;;;;;;5028426;28;20029;-68
2022/08/29 10:12:37;;;;;;;5.50;4.22;;;22.70;94.70;;;;;;5031205;28;20034;-67
2022/08/29 10:15:07;;;;;;;7.38;4.43;;;22.80;94.70;;;;;;5031595;28;20071;-67
2022/08/29 10:20:43;;;;;;;6.63;4.38;;;22.90;94.60;;;;;;5015865;28;20049;-67
2022/08/29 10:23:25;;;;;;;7.65;4.38;;;23.00;94.60;;;;;;5025296;28;20025;-69
2022/08/29 10:25:51;;;;;;;11.65;4.82;;;23.00;94.50;;;;;;5029128;28;20065;-68
2022/08/29 10:28:53;;;;;;;11.20;5.38;;;23.00;94.40;;;;;;5019370;28;20049;-68
2022/08/29 10:31:21;;;;;;;5.35;4.03;;;23.00;94.20;;;;;;5023993;28;20265;-69
2022/08/29 10:33:53;;;;;;;6.35;5.05;;;23.10;94.10;;;;;;5023470;28;20037;-69
2022/08/29 10:36:32;;;;;;;7.50;3.97;;;23.10;94.10;;;;;;5031947;28;20030;-69
2022/08/29 10:39:04;;;;;;;6.18;4.00;;;23.00;94.10;;;;;;5022455;28;20168;-69
2022/08/29 10:41:50;;;;;;;5.88;3.92;;;23.00;94.10;;;;;;5033233;28;20038;-69
2022/08/29 10:44:31;;;;;;;7.93;4.15;;;23.00;94.10;;;;;;5021034;28;20033;-69
2022/08/29 10:47:16;;;;;;;7.63;4.60;;;23.00;94.20;;;;;;5030316;28;20038;-69
2022/08/29 10:50:07;;;;;;;6.95;4.22;;;23.00;94.10;;;;;;5031464;28;20025;-69
2022/08/29 10:52:37;;;;;;;8.25;4.53;;;23.00;94.20;;;;;;5021046;28;20123;-69
2022/08/29 10:55:21;;;;;;;5.57;4.18;;;23.10;94.10;;;;;;5030222;28;20083;-69
2022/08/29 10:58:06;;;;;;;5.30;3.70;;;23.10;94.00;;;;;;5030833;28;20615;-69
2022/08/29 11:01:00;;;;;;;6.90;4.07;;;23.10;93.90;;;;;;5022867;28;20041;-69
2022/08/29 11:03:38;;;;;;;8.53;4.83;;;23.10;93.90;;;;;;5024517;28;20105;-69
2022/08/29 11:06:30;;;;;;;8.48;4.45;;;23.10;93.90;;;;;;5012210;28;20034;-69
2022/08/29 11:09:17;;;;;;;7.22;4.45;;;23.20;93.90;;;;;;5017645;28;20037;-69
2022/08/29 11:11:57;;;;;;;7.43;4.68;;;23.30;94.00;;;;;;5011965;28;20034;-69
2022/08/29 11:14:30;;;;;;;7.45;3.92;;;23.30;94.00;;;;;;5025333;28;20035;-69
2022/08/29 11:16:57;;;;;;;9.23;4.68;;;23.40;94.00;;;;;;5031837;28;20040;-69
2022/08/29 11:19:25;;;;;;;5.93;4.07;;;23.50;93.70;;;;;;5029412;28;20068;-69
2022/08/29 11:22:08;;;;;;;7.38;4.97;;;23.60;93.50;;;;;;5026075;28;20022;-69
2022/08/29 11:24:37;;;;;;;9.25;4.47;;;23.60;93.40;;;;;;5012360;28;20057;-69
2022/08/29 11:27:22;;;;;;;7.55;4.50;;;23.60;93.40;;;;;;5016619;28;20116;-68
2022/08/29 11:29:56;;;;;;;8.65;4.18;;;23.50;93.30;;;;;;5028936;28;20045;-69
2022/08/29 11:33:00;;;;;;;10.57;4.32;;;23.50;93.30;;;;;;5031943;28;20484;-68
2022/08/29 11:35:34;;;;;;;9.40;4.45;;;23.40;93.30;;;;;;5011730;28;20117;-69
2022/08/29 11:38:19;;;;;;;;;;;23.30;93.60;;;;;;5015272;28;20049;-69
2022/08/29 11:41:10;;;;;;;6.53;4.70;;;23.30;93.50;;;;;;5031440;28;19916;-69
2022/08/29 11:43:45;;;;;;;7.03;4.70;;;23.20;93.50;;;;;;5025640;28;20061;-69
2022/08/29 11:46:13;;;;;;;8.15;4.35;;;23.10;93.50;;;;;;5020987;28;20120;-69
2022/08/29 11:48:40;;;;;;;7.60;4.43;;;23.10;93.70;;;;;;5022785;28;20029;-69
2022/08/29 11:51:29;;;;;;;6.45;4.15;;;23.10;93.70;;;;;;5027876;28;20191;-69
2022/08/29 11:54:15;;;;;;;6.07;4.18;;;23.20;93.80;;;;;;5025988;28;20048;-69
2022/08/29 11:56:40;;;;;;;5.43;4.15;;;23.30;93.70;;;;;;5002589;28;20080;-69
2022/08/29 11:59:06;;;;;;;5.90;4.45;;;23.30;93.60;;;;;;5025221;28;20435;-68
2022/08/29 12:01:35;;;;;;;9.27;4.68;;;23.30;93.50;;;;;;5011158;28;20052;-69
2022/08/29 12:04:08;;;;;;;9.20;4.50;;;23.40;93.40;;;;;;5024334;28;20042;-69
2022/08/29 12:06:51;;;;;;;5.78;4.07;;;23.40;93.30;;;;;;5028456;28;20189;-69
2022/08/29 12:09:25;;;;;;;7.55;4.35;;;23.40;93.40;;;;;;5022247;28;20105;-68
2022/08/29 12:12:11;;;;;;;5.28;3.75;;;23.50;93.50;;;;;;5017328;28;20030;-69
2022/08/29 12:14:49;;;;;;;8.88;4.10;;;23.60;93.50;;;;;;5025038;28;20037;-68
2022/08/29 12:17:23;;;;;;;6.00;4.47;;;23.70;93.40;;;;;;5030040;28;20029;-68
2022/08/29 12:19:54;;;;;;;7.03;4.10;;;23.80;93.30;;;;;;5024741;28;20161;-68
2022/08/29 12:22:45;;;;;;;6.75;3.90;;;23.90;93.30;;;;;;5011685;28;20093;-69
2022/08/29 12:25:42;;;;;;;6.57;3.22;;;24.00;92.90;;;;;;5022372;28;20057;-69
2022/08/29 12:28:19;;;;;;;6.30;3.55;;;24.10;92.70;;;;;;5028732;28;20041;-69
2022/08/29 12:30:51;;;;;;;4.70;3.60;;;24.10;92.50;;;;;;5025400;28;20120;-67
2022/08/29 12:33:51;;;;;;;6.18;3.70;;;24.10;92.50;;;;;;5025234;28;20035;-68
2022/08/29 12:36:38;;;;;;;6.15;3.53;;;24.10;92.50;;;;;;5032699;28;20044;-68
2022/08/29 12:39:28;;;;;;;7.30;3.63;;;24.10;92.40;;;;;;5029936;28;20040;-69
2022/08/29 12:41:56;;;;;;;7.07;4.35;;;24.10;92.40;;;;;;5016205;28;20270;-69
2022/08/29 12:44:34;;;;;;;6.75;4.40;;;24.10;92.40;;;;;;5032327;28;20051;-69
2022/08/29 12:47:10;;;;;;;7.45;4.30;;;24.10;92.20;;;;;;5021571;28;20030;-69
2022/08/29 12:49:51;;;;;;;6.70;3.90;;;24.10;92.20;;;;;;5031286;28;20207;-68
2022/08/29 12:52:23;;;;;;;7.75;4.20;;;24.20;92.20;;;;;;5017750;28;20129;-68
2022/08/29 12:54:49;;;;;;;7.38;4.32;;;24.20;92.10;;;;;;5032690;28;20025;-68
2022/08/29 12:57:18;;;;;;;6.00;3.88;;;24.30;92.30;;;;;;5019910;28;20036;-68
2022/08/29 12:59:50;;;;;;;5.72;3.80;;;24.30;92.20;;;;;;5033396;28;20064;-68
2022/08/29 13:02:53;;;;;;;10.05;4.15;;;24.40;92.10;;;;;;5002482;28;20026;-68
2022/08/29 13:05:23;;;;;;;7.05;3.95;;;24.50;92.20;;;;;;5032847;28;20079;-68
2022/08/29 13:08:07;;;;;;;7.85;3.63;;;24.50;92.10;;;;;;5021504;28;20051;-68